Time;durP1;ratioP1;P1;durP2;ratioP2;P2;SDS_P1;SDS_P2;PMS_P1;PMS_P2;Temp;Humidity;BMP_temperature;BMP_pressure;BME280_temperature;BME280_humidity;BME280_pressure;Samples;Min_cycle;Max_cycle;Signal;HPM_P1;HPM_P2
2022/05/07 00:00:48;;;;;;;7.43;4.35;;;;;;;9.01;74.13;99958.38;8498605;27;20051;-72
2022/05/07 00:04:49;;;;;;;10.38;5.43;;;;;;;8.90;74.64;99958.44;8528858;27;20054;-71
2022/05/07 00:08:50;;;;;;;14.23;5.13;;;;;;;8.89;74.56;99951.44;8526399;27;20078;-72
2022/05/07 00:12:51;;;;;;;13.52;5.60;;;;;;;8.87;74.61;99959.00;8526427;27;20416;-72
2022/05/07 00:21:11;;;;;;;12.73;6.20;;;;;;;8.73;75.25;99957.97;8527510;27;20050;-72
2022/05/07 00:25:12;;;;;;;14.07;6.43;;;;;;;8.74;75.11;99959.56;8520884;27;20045;-72
2022/05/07 00:29:13;;;;;;;21.83;6.95;;;;;;;8.78;75.33;99966.03;8516748;27;20062;-72
2022/05/07 00:33:14;;;;;;;13.77;6.72;;;;;;;8.80;75.29;99958.47;8479444;27;20066;-72
2022/05/07 00:37:15;;;;;;;13.27;5.72;;;;;;;8.81;75.43;99954.72;8480661;27;20103;-72
2022/05/07 00:41:16;;;;;;;17.08;6.65;;;;;;;8.82;75.85;99956.31;8503462;27;20088;-72
2022/05/07 00:45:17;;;;;;;9.43;5.57;;;;;;;8.86;75.58;99957.38;8449076;27;20046;-72
2022/05/07 00:49:18;;;;;;;8.57;4.72;;;;;;;8.87;75.69;99953.63;8505444;27;20062;-72
2022/05/07 00:53:19;;;;;;;20.27;6.05;;;;;;;8.85;76.01;99949.56;8503459;27;20042;-72
2022/05/07 00:57:21;;;;;;;9.73;5.35;;;;;;;8.82;76.52;99950.94;8454183;27;20092;-72
2022/05/07 01:01:22;;;;;;;8.05;4.88;;;;;;;8.86;76.44;99941.22;8500639;27;20044;-72
2022/05/07 01:05:23;;;;;;;13.23;4.93;;;;;;;8.92;76.84;99951.97;8487432;27;20038;-71
2022/05/07 01:09:24;;;;;;;10.57;4.50;;;;;;;8.92;76.77;99949.28;8454488;27;20410;-72
2022/05/07 01:13:25;;;;;;;11.40;5.00;;;;;;;8.89;76.86;99943.34;8446812;27;20038;-72
2022/05/07 01:17:26;;;;;;;10.48;4.50;;;;;;;8.89;76.77;99946.03;8494054;27;20051;-72
2022/05/07 01:21:28;;;;;;;9.25;4.90;;;;;;;8.89;76.93;99935.25;8501465;27;20135;-71
2022/05/07 01:25:29;;;;;;;10.80;4.45;;;;;;;8.92;77.09;99933.13;8508017;27;20043;-71
2022/05/07 01:29:30;;;;;;;9.38;4.80;;;;;;;8.95;76.74;99929.84;8498497;27;20039;-72
2022/05/07 01:33:36;;;;;;;10.95;5.30;;;;;;;8.95;77.19;99927.16;8496992;27;20050;-72
2022/05/07 01:37:37;;;;;;;8.50;4.55;;;;;;;8.93;77.15;99929.34;8496306;27;20130;-73
2022/05/07 01:41:38;;;;;;;7.22;4.68;;;;;;;8.93;77.25;99918.56;8494874;27;20149;-72
2022/05/07 01:45:39;;;;;;;11.32;4.80;;;;;;;8.98;76.86;99921.22;8496328;27;20134;-72
2022/05/07 01:49:40;;;;;;;17.48;5.18;;;;;;;9.03;76.62;99913.13;8503090;27;20496;-72
2022/05/07 01:53:40;;;;;;;11.75;4.78;;;;;;;9.05;76.99;99910.94;8495258;27;20063;-72
2022/05/07 01:57:41;;;;;;;10.05;4.53;;;;;;;9.05;77.15;99916.31;8500177;27;20466;-72
2022/05/07 02:01:42;;;;;;;10.52;4.65;;;;;;;9.05;77.60;99916.31;8503872;27;20179;-72
2022/05/07 02:05:43;;;;;;;7.78;4.60;;;;;;;9.08;77.13;99915.78;8461074;27;20403;-72
2022/05/07 02:09:44;;;;;;;11.30;5.72;;;;;;;9.15;76.99;99916.25;8500154;27;20192;-72
2022/05/07 02:13:45;;;;;;;12.00;5.43;;;;;;;9.18;76.91;99903.03;8498017;27;20043;-71
2022/05/07 02:17:46;;;;;;;9.43;5.40;;;;;;;9.14;77.14;99909.28;8481208;27;20062;-72
2022/05/07 02:21:47;;;;;;;9.65;5.60;;;;;;;9.08;77.74;99905.00;8493343;27;20104;-72
2022/05/07 02:25:48;;;;;;;9.85;5.90;;;;;;;9.02;77.35;99911.50;8496841;27;20126;-72
2022/05/07 02:29:49;;;;;;;13.90;5.47;;;;;;;9.01;77.46;99912.56;8497094;27;20104;-71
2022/05/07 02:33:51;;;;;;;10.05;5.50;;;;;;;8.98;77.57;99910.44;8500560;27;20066;-72
2022/05/07 02:37:54;;;;;;;8.40;5.40;;;;;;;8.87;78.24;99915.09;8496364;27;20046;-71
2022/05/07 02:46:14;;;;;;;14.60;4.88;;;;;;;8.86;78.00;99908.91;8485508;27;20051;-72
2022/05/07 02:50:15;;;;;;;8.95;4.43;;;;;;;8.96;77.73;99912.59;8529162;27;20046;-72
2022/05/07 02:54:16;;;;;;;10.25;5.35;;;;;;;9.00;77.64;99913.66;8494025;27;20041;-72
2022/05/07 02:58:18;;;;;;;10.77;4.88;;;;;;;9.01;77.65;99915.28;8531108;27;20050;-72
2022/05/07 03:02:19;;;;;;;11.95;4.97;;;;;;;9.02;77.53;99911.50;8531829;27;20047;-72
2022/05/07 03:06:19;;;;;;;13.07;5.32;;;;;;;9.02;77.18;99917.69;8529026;27;20113;-72
2022/05/07 03:10:21;;;;;;;9.60;4.85;;;;;;;8.95;77.72;99911.00;8529482;27;20055;-72
2022/05/07 03:14:21;;;;;;;13.30;5.03;;;;;;;8.83;77.94;99909.44;8522816;27;20047;-72
2022/05/07 03:18:22;;;;;;;10.75;5.32;;;;;;;8.82;77.58;99909.72;8521030;27;20054;-72
2022/05/07 03:22:23;;;;;;;10.85;5.25;;;;;;;8.77;77.60;99921.34;8526991;27;20137;-72
2022/05/07 03:26:27;;;;;;;12.55;5.50;;;;;;;8.73;77.63;99925.66;8533050;27;20046;-72
2022/05/07 03:30:28;;;;;;;14.82;4.82;;;;;;;8.65;78.25;99923.53;8490072;27;20179;-73
2022/05/07 03:34:29;;;;;;;9.93;4.82;;;;;;;8.58;78.10;99923.03;8530912;27;20464;-73
2022/05/07 03:38:29;;;;;;;10.32;4.80;;;;;;;8.52;78.72;99931.38;8479223;27;20051;-72
2022/05/07 03:42:33;;;;;;;13.68;4.93;;;;;;;8.43;79.10;99931.16;8454885;27;20039;-72
2022/05/07 03:46:34;;;;;;;9.35;4.65;;;;;;;8.38;78.93;99944.63;8520051;27;20381;-72
2022/05/07 03:50:36;;;;;;;9.48;4.63;;;;;;;8.29;79.32;99938.19;8498661;27;20055;-72
2022/05/07 03:54:38;;;;;;;6.70;4.63;;;;;;;8.26;79.16;99941.41;8498357;27;20096;-72
2022/05/07 03:58:39;;;;;;;16.60;5.45;;;;;;;8.23;79.24;99941.94;8524020;27;20068;-71
2022/05/07 04:02:40;;;;;;;11.90;4.75;;;;;;;8.28;79.09;99944.63;8532265;27;20047;-72
2022/05/07 04:06:41;;;;;;;10.55;5.05;;;;;;;8.35;79.01;99950.56;8472628;27;20055;-72
2022/05/07 04:10:42;;;;;;;11.52;5.85;;;;;;;8.39;78.73;99947.06;8514113;27;20081;-71
2022/05/07 04:14:44;;;;;;;14.65;5.05;;;;;;;8.47;78.85;99953.75;8524547;27;20428;-72
2022/05/07 04:18:44;;;;;;;10.77;5.43;;;;;;;8.52;78.72;99945.66;8488367;27;20043;-72
2022/05/07 04:22:45;;;;;;;10.18;5.35;;;;;;;8.58;78.82;99949.94;8509337;27;20065;-72
2022/05/07 04:26:46;;;;;;;10.13;4.78;;;;;;;8.70;78.72;99947.75;8522997;27;20047;-71
2022/05/07 04:30:47;;;;;;;7.72;5.00;;;;;;;8.82;78.46;99950.94;8526371;27;20065;-72
2022/05/07 04:34:48;;;;;;;13.80;5.50;;;;;;;8.98;78.30;99948.16;8529326;27;20082;-72
2022/05/07 04:38:49;;;;;;;12.80;5.30;;;;;;;9.18;78.00;99942.66;8526882;27;20086;-72
2022/05/07 04:42:50;;;;;;;8.90;4.78;;;;;;;9.35;78.00;99959.28;8530817;27;20488;-72
2022/05/07 04:46:51;;;;;;;12.73;5.50;;;;;;;9.47;78.38;99957.00;8524792;27;20057;-72
2022/05/07 04:50:52;;;;;;;11.43;5.47;;;;;;;9.68;78.18;99963.88;8516665;27;20178;-72
2022/05/07 04:54:53;;;;;;;17.10;5.43;;;;;;;9.92;77.95;99963.16;8525714;27;20045;-72
2022/05/07 04:58:54;;;;;;;10.30;5.95;;;;;;;10.17;77.61;99971.03;8524812;27;20039;-72
2022/05/07 05:02:55;;;;;;;7.90;6.05;;;;;;;10.38;77.51;99967.03;8527407;27;20047;-72
2022/05/07 05:06:56;;;;;;;13.45;6.00;;;;;;;10.60;77.29;99974.63;8526831;27;20103;-72
2022/05/07 05:10:57;;;;;;;12.60;5.93;;;;;;;10.82;77.21;99972.22;8524738;27;20054;-72
2022/05/07 05:15:01;;;;;;;15.02;5.78;;;;;;;11.02;78.09;99976.53;8524949;27;20051;-72
2022/05/07 05:19:02;;;;;;;10.85;6.00;;;;;;;11.21;78.91;99977.34;8489939;27;20559;-72
2022/05/07 05:23:03;;;;;;;11.57;5.57;;;;;;;11.43;78.00;99977.59;8528593;27;20041;-72
2022/05/07 05:27:04;;;;;;;16.13;6.28;;;;;;;11.64;77.57;99971.88;8458933;27;20043;-72
2022/05/07 05:31:06;;;;;;;12.57;6.65;;;;;;;11.84;77.92;99966.19;8510817;27;20902;-72
2022/05/07 05:35:07;;;;;;;13.27;6.68;;;;;;;12.03;79.33;99974.25;8465041;27;20043;-73
2022/05/07 05:39:09;;;;;;;17.02;8.23;;;;;;;12.14;79.09;99971.06;8526211;27;20084;-72
2022/05/07 05:43:10;;;;;;;18.35;8.60;;;;;;;12.32;78.86;99976.72;8491069;27;20059;-73
2022/05/07 05:47:11;;;;;;;21.10;8.13;;;;;;;12.47;77.59;99974.53;8488261;27;20083;-73
2022/05/07 05:51:12;;;;;;;31.02;11.68;;;;;;;12.68;76.46;99975.75;8504202;27;20030;-73
2022/05/07 05:55:13;;;;;;;21.75;10.52;;;;;;;12.88;75.78;99985.38;8502783;27;20054;-72
2022/05/07 05:59:14;;;;;;;18.00;9.63;;;;;;;13.06;75.14;99992.56;8486340;27;20059;-72
2022/05/07 06:03:15;;;;;;;18.67;8.57;;;;;;;13.24;74.70;99998.22;8490111;27;20396;-72
2022/05/07 06:07:17;;;;;;;14.77;7.78;;;;;;;13.39;73.77;99989.72;8525572;27;20042;-72
2022/05/07 06:11:17;;;;;;;14.13;6.55;;;;;;;13.50;72.96;100007.38;8517201;27;20053;-73
2022/05/07 06:15:18;;;;;;;13.70;6.57;;;;;;;13.56;71.59;100006.16;8484631;27;20038;-73
2022/05/07 06:19:19;;;;;;;18.65;6.95;;;;;;;13.56;70.46;100011.59;8525767;27;20043;-72
2022/05/07 06:23:20;;;;;;;23.05;7.93;;;;;;;13.59;70.19;100010.19;8527432;27;20600;-73
2022/05/07 06:27:33;;;;;;;18.17;6.93;;;;;;;13.64;69.76;100019.00;8525879;27;20043;-72
2022/05/07 06:31:34;;;;;;;15.90;7.20;;;;;;;13.82;69.35;100018.03;8525248;27;20087;-72
2022/05/07 06:35:35;;;;;;;14.30;6.70;;;;;;;13.91;68.84;100013.47;8527075;27;20708;-72
2022/05/07 06:39:37;;;;;;;12.77;6.55;;;;;;;14.07;68.65;100013.09;8524009;27;20035;-73
2022/05/07 06:43:38;;;;;;;11.00;5.65;;;;;;;14.35;67.52;100009.13;8520904;27;20143;-72
2022/05/07 06:47:40;;;;;;;16.50;6.53;;;;;;;14.40;66.31;100014.44;8518228;27;20058;-72
2022/05/07 06:51:40;;;;;;;12.35;6.65;;;;;;;14.34;66.48;100010.22;8463554;27;20531;-72
2022/05/07 06:55:58;;;;;;;20.10;8.23;;;;;;;14.37;66.11;100015.09;8526727;27;20058;-72
2022/05/07 06:59:59;;;;;;;19.65;8.80;;;;;;;14.57;65.69;100014.53;8514524;27;20047;-72
2022/05/07 07:04:00;;;;;;;20.60;8.23;;;;;;;14.76;63.75;100017.81;8525853;27;20043;-73
2022/05/07 07:08:01;;;;;;;13.48;7.80;;;;;;;14.73;63.33;100023.88;8514879;27;20141;-72
2022/05/07 07:12:06;;;;;;;20.05;7.80;;;;;;;14.68;63.34;100026.75;8520057;27;20650;-72
2022/05/07 07:16:07;;;;;;;17.67;7.63;;;;;;;14.87;63.48;100033.84;8510958;27;20039;-73
2022/05/07 07:20:08;;;;;;;14.48;7.53;;;;;;;15.04;61.72;100028.47;8522488;27;20047;-73
2022/05/07 07:24:09;;;;;;;15.90;7.75;;;;;;;15.25;61.27;100034.13;8503618;27;20074;-73
2022/05/07 07:28:13;;;;;;;15.02;6.82;;;;;;;15.43;61.32;100031.13;8518388;27;20038;-73
2022/05/07 07:32:14;;;;;;;22.52;7.65;;;;;;;15.59;61.75;100024.13;8528169;27;20059;-73
2022/05/07 07:36:15;;;;;;;15.13;6.70;;;;;;;15.67;61.20;100019.00;8526811;27;20380;-73
2022/05/07 07:40:16;;;;;;;18.42;7.05;;;;;;;15.73;60.00;100028.63;8525144;27;20133;-73
2022/05/07 07:44:18;;;;;;;13.98;6.57;;;;;;;15.83;59.78;100022.84;8480086;27;20409;-73
2022/05/07 07:48:21;;;;;;;17.35;6.50;;;;;;;15.88;59.39;100025.41;8464652;27;20046;-74
2022/05/07 07:52:23;;;;;;;13.32;7.03;;;;;;;16.04;59.86;100021.06;8516661;27;20054;-75
2022/05/07 07:56:23;;;;;;;14.88;6.35;;;;;;;16.20;58.76;100016.72;8515813;27;20042;-72
2022/05/07 08:00:26;;;;;;;13.55;5.47;;;;;;;16.27;57.52;100017.03;8449383;27;20043;-72
2022/05/07 08:04:27;;;;;;;11.20;5.70;;;;;;;16.46;57.50;100020.16;8502331;27;20058;-72
2022/05/07 08:12:48;;;;;;;20.50;6.07;;;;;;;16.89;55.34;100011.84;8500947;27;20051;-77
2022/05/07 08:16:49;;;;;;;11.70;6.05;;;;;;;17.15;55.85;100014.44;8498436;27;20047;-72
2022/05/07 08:20:50;;;;;;;11.07;5.90;;;;;;;17.37;54.63;100012.53;8495956;27;20051;-73
2022/05/07 08:24:51;;;;;;;9.93;6.05;;;;;;;17.61;54.94;100009.97;8506928;27;20126;-72
2022/05/07 08:28:52;;;;;;;14.73;5.30;;;;;;;17.65;53.79;100016.38;8530058;27;20488;-72
2022/05/07 08:32:53;;;;;;;20.15;6.10;;;;;;;18.09;51.41;99999.25;8530401;27;20051;-72
2022/05/07 08:36:54;;;;;;;13.50;5.35;;;;;;;18.22;51.96;100007.50;8499476;27;20047;-72
2022/05/07 08:40:59;;;;;;;9.65;5.40;;;;;;;17.86;51.72;100002.72;8461630;27;20043;-72
2022/05/07 08:45:00;;;;;;;10.20;5.35;;;;;;;17.63;53.01;100013.19;8526666;27;20127;-74
2022/05/07 08:49:01;;;;;;;13.10;5.38;;;;;;;17.43;53.47;100012.03;8531416;27;20504;-72
2022/05/07 08:53:03;;;;;;;13.00;5.15;;;;;;;17.63;53.20;100019.44;8530797;27;20058;-72
2022/05/07 08:57:05;;;;;;;11.68;4.45;;;;;;;17.92;52.71;100009.56;8477343;27;20077;-72
2022/05/07 09:01:06;;;;;;;9.15;4.00;;;;;;;18.17;50.23;100010.47;8511660;27;20046;-72
2022/05/07 09:05:09;;;;;;;10.98;5.07;;;;;;;18.20;48.16;100009.78;8529501;27;20133;-72
2022/05/07 09:09:10;;;;;;;8.20;3.95;;;;;;;18.09;49.74;100004.72;8527838;27;20437;-72
2022/05/07 09:13:14;;;;;;;9.23;4.47;;;;;;;18.09;50.61;100015.66;8517584;27;20552;-73
2022/05/07 09:17:18;;;;;;;9.15;4.30;;;;;;;18.05;50.57;100006.53;8516942;27;20150;-74
2022/05/07 09:21:29;;;;;;;10.32;4.28;;;;;;;17.89;49.82;100011.03;8529207;27;20510;-72
2022/05/07 12:40:32;;;;;;;12.70;3.20;;;;;;;21.36;36.71;99873.00;8238250;28;20492;-69
2022/05/07 12:44:34;;;;;;;11.98;3.30;;;;;;;21.53;36.78;99870.97;8222007;28;20059;-69
2022/05/07 12:48:35;;;;;;;14.30;3.28;;;;;;;22.03;36.24;99873.53;8223443;28;20082;-69
2022/05/07 12:52:36;;;;;;;6.70;3.03;;;;;;;22.61;34.96;99870.53;8225334;28;20087;-69
2022/05/07 12:56:36;;;;;;;7.63;3.15;;;;;;;22.59;37.19;99872.84;8223989;28;20585;-69
2022/05/07 13:00:39;;;;;;;5.38;2.90;;;;;;;22.89;34.54;99870.19;8224774;28;20183;-70
2022/05/07 13:04:40;;;;;;;8.00;2.92;;;;;;;22.63;33.97;99869.00;8225836;28;20055;-73
2022/05/07 13:08:41;;;;;;;6.40;2.65;;;;;;;22.80;33.95;99859.44;8223607;28;20481;-71
2022/05/07 13:12:42;;;;;;;7.25;2.70;;;;;;;23.01;34.39;99859.72;8224339;28;20066;-70
2022/05/07 13:16:44;;;;;;;6.35;3.25;;;;;;;23.48;33.83;99858.34;8223486;28;20466;-70
2022/05/07 13:20:45;;;;;;;5.57;3.00;;;;;;;23.90;32.55;99853.28;8223483;28;20039;-70
2022/05/07 13:24:46;;;;;;;6.18;2.78;;;;;;;23.77;31.36;99849.22;8222432;28;20306;-70
2022/05/07 13:28:47;;;;;;;9.25;2.95;;;;;;;24.06;30.46;99849.50;8237416;28;20426;-70
2022/05/07 13:32:48;;;;;;;4.78;2.95;;;;;;;23.73;32.08;99847.59;8223757;28;20057;-71
2022/05/07 13:36:49;;;;;;;11.95;2.80;;;;;;;23.66;32.51;99848.31;8220796;28;20055;-70
2022/05/07 13:40:51;;;;;;;7.15;3.20;;;;;;;22.99;32.37;99842.78;8205611;28;20056;-70
2022/05/07 13:44:51;;;;;;;8.57;2.65;;;;;;;22.50;32.66;99842.06;8203213;28;20062;-71
2022/05/07 13:48:53;;;;;;;11.13;2.50;;;;;;;22.07;34.13;99838.63;8203665;28;20102;-70
2022/05/07 13:52:54;;;;;;;6.80;2.45;;;;;;;21.92;34.26;99823.81;8202420;28;20058;-71
2022/05/07 13:56:55;;;;;;;4.93;2.40;;;;;;;22.55;34.70;99825.22;8203201;28;20123;-70
2022/05/07 14:00:56;;;;;;;3.85;2.50;;;;;;;23.43;33.27;99836.59;8203538;28;20051;-70
2022/05/07 14:04:58;;;;;;;6.43;2.70;;;;;;;22.89;34.15;99832.44;8202590;28;20047;-70
2022/05/07 14:08:58;;;;;;;6.13;1.63;;;;;;;22.40;35.25;99831.69;8203365;28;20070;-70
2022/05/07 14:13:00;;;;;;;7.97;2.17;;;;;;;24.55;32.19;99827.81;8233207;28;20138;-71
2022/05/07 14:17:01;;;;;;;5.53;2.08;;;;;;;24.44;32.04;99826.94;8202607;28;20083;-71
2022/05/07 14:21:05;;;;;;;7.65;2.05;;;;;;;25.03;31.35;99824.94;8202723;28;20138;-70
2022/05/07 14:25:06;;;;;;;5.82;2.10;;;;;;;28.03;28.48;99823.72;8202565;28;20058;-71
2022/05/07 14:29:07;;;;;;;5.97;2.40;;;;;;;30.25;25.49;99824.22;8216126;28;20524;-71
2022/05/07 14:33:08;;;;;;;3.72;2.30;;;;;;;31.67;22.89;99824.25;8202278;28;20055;-70
2022/05/07 14:37:09;;;;;;;4.60;2.38;;;;;;;31.95;23.80;99820.78;8206216;28;20138;-71
2022/05/07 14:41:12;;;;;;;46.00;3.38;;;;;;;28.96;25.26;99807.78;8202536;28;20051;-70
2022/05/07 14:45:14;;;;;;;6.55;2.13;;;;;;;26.78;27.30;99805.34;8201633;28;20497;-70
2022/05/07 14:49:15;;;;;;;5.28;2.10;;;;;;;26.57;27.08;99805.41;8200416;28;20146;-71
2022/05/07 14:53:16;;;;;;;6.72;1.80;;;;;;;26.13;28.82;99803.84;8200505;28;20047;-71
2022/05/07 14:57:17;;;;;;;6.53;2.25;;;;;;;26.95;27.89;99804.53;8207447;28;20043;-71
2022/05/07 15:01:18;;;;;;;6.22;2.20;;;;;;;27.13;26.36;99799.69;8212528;28;20043;-71
2022/05/07 15:05:19;;;;;;;7.55;2.50;;;;;;;27.85;26.19;99800.88;8203199;28;20058;-70
2022/05/07 15:13:40;;;;;;;6.07;2.33;;;;;;;26.07;27.39;99795.16;8198852;28;20498;-71
2022/05/07 15:17:41;;;;;;;6.03;2.10;;;;;;;26.61;27.60;99793.13;8198436;28;20687;-70
2022/05/07 15:21:42;;;;;;;8.65;2.05;;;;;;;27.68;26.42;99787.94;8199177;28;20087;-70
2022/05/07 15:25:44;;;;;;;3.83;2.28;;;;;;;26.89;26.55;99786.75;8203902;28;20402;-70
2022/05/07 15:29:44;;;;;;;4.40;2.22;;;;;;;25.93;27.31;99777.78;8201288;28;20055;-70
2022/05/07 15:38:07;;;;;;;5.32;2.50;;;;;;;26.16;27.78;99775.41;8220208;28;20467;-70
2022/05/07 15:42:11;;;;;;;6.00;2.15;;;;;;;27.09;26.01;99782.31;8218205;28;20134;-71
2022/05/07 15:46:15;;;;;;;5.80;2.08;;;;;;;28.14;25.97;99771.72;8201288;28;20086;-71
2022/05/07 15:50:19;;;;;;;7.05;2.10;;;;;;;27.95;25.14;99766.69;8201869;28;20059;-69
2022/05/07 15:54:20;;;;;;;3.47;2.15;;;;;;;27.18;26.22;99774.31;8202774;28;20043;-70
2022/05/07 15:58:22;;;;;;;4.35;2.10;;;;;;;26.22;27.52;99768.31;8233508;28;20090;-70
2022/05/07 16:02:22;;;;;;;5.03;1.92;;;;;;;25.85;28.14;99759.59;8220273;28;20051;-70
2022/05/07 16:06:24;;;;;;;6.65;1.90;;;;;;;25.73;28.03;99759.97;8233462;28;20082;-71
2022/05/07 16:10:28;;;;;;;3.72;2.20;;;;;;;25.36;28.89;99757.53;8251809;28;20067;-70
2022/05/07 16:14:30;;;;;;;6.32;2.10;;;;;;;25.05;28.52;99761.81;8212306;28;20043;-70
2022/05/07 16:18:31;;;;;;;6.10;2.50;;;;;;;24.70;29.21;99746.63;8218836;28;20062;-71
2022/05/07 16:26:53;;;;;;;6.68;2.10;;;;;;;24.03;30.09;99748.16;8201138;28;20134;-70
2022/05/07 16:30:55;;;;;;;5.05;2.42;;;;;;;23.46;30.87;99751.25;8239924;28;20050;-70
2022/05/07 16:34:56;;;;;;;6.00;2.60;;;;;;;23.05;31.83;99753.13;8240522;28;20112;-71
2022/05/07 16:38:57;;;;;;;6.57;2.30;;;;;;;22.71;32.29;99748.78;8232991;28;20046;-70
2022/05/07 16:42:58;;;;;;;5.57;2.00;;;;;;;22.43;33.48;99742.88;8206179;28;20572;-71
2022/05/07 16:46:59;;;;;;;5.57;2.47;;;;;;;22.09;33.23;99740.03;8210288;28;20412;-71
2022/05/07 16:51:00;;;;;;;5.60;2.05;;;;;;;21.81;34.23;99739.56;8228307;28;20070;-70
2022/05/07 16:55:01;;;;;;;8.40;2.13;;;;;;;21.52;34.28;99738.28;8227000;28;20546;-71
2022/05/07 16:59:02;;;;;;;7.60;2.28;;;;;;;21.23;35.03;99731.50;8211149;28;20050;-70
2022/05/07 17:03:03;;;;;;;9.90;2.28;;;;;;;21.08;35.52;99737.84;8201752;28;20055;-70
2022/05/07 17:07:05;;;;;;;4.55;2.30;;;;;;;20.90;36.33;99750.41;8198670;28;20067;-70
2022/05/07 17:11:06;;;;;;;7.05;2.45;;;;;;;20.64;36.70;99742.84;8197676;28;20047;-70
2022/05/07 17:15:07;;;;;;;4.72;2.70;;;;;;;20.54;37.52;99749.69;8204319;28;20558;-71
2022/05/07 17:19:08;;;;;;;5.80;2.50;;;;;;;20.35;38.83;99746.94;8208209;28;20466;-70
2022/05/07 17:23:11;;;;;;;4.60;2.58;;;;;;;20.08;39.92;99753.31;8204615;28;20487;-70
2022/05/07 17:27:13;;;;;;;6.45;2.40;;;;;;;19.76;40.93;99747.88;8204612;28;20402;-71
2022/05/07 17:31:13;;;;;;;7.55;2.70;;;;;;;19.50;42.15;99744.84;8204845;28;20561;-71
2022/05/07 17:35:15;;;;;;;4.32;2.53;;;;;;;19.29;43.04;99749.75;8202225;28;20126;-72
2022/05/07 17:39:16;;;;;;;6.43;2.63;;;;;;;19.11;44.00;99753.94;8203195;28;20150;-72
2022/05/07 17:43:19;;;;;;;3.97;2.38;;;;;;;18.84;44.98;99756.31;8204262;28;20134;-74
2022/05/07 17:47:19;;;;;;;9.35;2.70;;;;;;;18.60;45.68;99772.81;8204462;28;20058;-74
2022/05/07 17:51:20;;;;;;;6.25;2.50;;;;;;;18.35;46.07;99771.22;8204168;28;20055;-73
2022/05/07 17:55:22;;;;;;;9.80;2.97;;;;;;;18.17;46.64;99775.34;8204022;28;20051;-73
2022/05/07 17:59:24;;;;;;;10.02;4.00;;;;;;;17.98;46.94;99784.13;8203518;28;20106;-73
2022/05/07 18:03:25;;;;;;;12.75;4.18;;;;;;;17.90;47.62;99783.09;8204089;28;20055;-73
2022/05/07 18:07:29;;;;;;;16.35;5.70;;;;;;;17.70;48.62;99784.00;8203852;28;20055;-73
2022/05/07 18:11:29;;;;;;;18.23;7.55;;;;;;;17.50;50.02;99784.84;8207607;28;20470;-72
2022/05/07 18:15:33;;;;;;;20.27;8.55;;;;;;;17.37;50.62;99786.72;8213626;28;20102;-72
2022/05/07 18:19:34;;;;;;;17.52;8.43;;;;;;;17.17;52.03;99793.84;8203118;28;20047;-72
2022/05/07 18:23:35;;;;;;;17.17;5.80;;;;;;;16.98;52.93;99796.25;8202742;28;20055;-73
2022/05/07 18:27:37;;;;;;;16.02;5.40;;;;;;;16.79;53.65;99787.75;8202927;28;20055;-74
2022/05/07 18:31:38;;;;;;;14.45;6.00;;;;;;;16.60;54.13;99801.06;8203071;28;20055;-71
2022/05/07 18:35:40;;;;;;;15.48;5.82;;;;;;;16.42;54.87;99801.13;8203267;28;20074;-72
2022/05/07 18:44:00;;;;;;;18.13;9.00;;;;;;;15.99;56.15;99809.53;8202446;29;20047;-72
2022/05/07 18:48:02;;;;;;;13.75;7.63;;;;;;;15.79;57.05;99810.25;8204228;28;20047;-72
2022/05/07 18:52:03;;;;;;;11.68;5.00;;;;;;;15.63;57.44;99807.28;8202323;28;20495;-74
2022/05/07 19:00:24;;;;;;;9.90;4.90;;;;;;;15.29;58.10;99818.19;8203786;28;20118;-72
2022/05/07 19:04:25;;;;;;;7.53;5.00;;;;;;;15.12;58.73;99823.66;8217216;28;20095;-72
2022/05/07 19:08:28;;;;;;;7.65;4.20;;;;;;;14.97;59.07;99821.41;8201135;28;20081;-73
2022/05/07 19:12:33;;;;;;;6.35;4.05;;;;;;;14.85;59.44;99822.06;8206898;28;20050;-72
2022/05/07 19:16:36;;;;;;;9.80;4.38;;;;;;;14.72;59.57;99831.16;8213199;28;20094;-73
2022/05/07 19:20:37;;;;;;;10.55;4.25;;;;;;;14.64;59.76;99824.59;8200844;28;20138;-72
2022/05/07 19:24:39;;;;;;;11.90;4.03;;;;;;;14.58;59.54;99830.50;8201309;28;20098;-72
2022/05/07 19:28:41;;;;;;;10.82;4.00;;;;;;;14.43;59.75;99831.75;8208632;28;20082;-73
2022/05/07 19:32:45;;;;;;;7.90;4.03;;;;;;;14.32;60.09;99835.84;8194261;29;20055;-72
2022/05/07 19:36:46;;;;;;;9.20;3.90;;;;;;;14.24;60.37;99842.06;8214232;28;20047;-73
2022/05/07 19:40:48;;;;;;;9.80;3.15;;;;;;;14.18;60.40;99843.31;8211634;28;20467;-72
2022/05/07 19:44:55;;;;;;;11.23;3.40;;;;;;;14.05;60.99;99849.66;8150982;29;20058;-72
2022/05/07 19:48:57;;;;;;;7.50;3.72;;;;;;;13.95;60.65;99846.13;8201585;28;20054;-73
2022/05/07 19:53:03;;;;;;;5.50;3.33;;;;;;;13.80;61.01;99832.91;8184577;28;20117;-73
2022/05/07 19:57:06;;;;;;;8.73;3.80;;;;;;;13.68;61.51;99845.50;8201680;28;20042;-72
2022/05/07 20:01:09;;;;;;;13.98;4.00;;;;;;;13.54;62.05;99840.13;8193372;28;20134;-72
2022/05/07 20:05:13;;;;;;;22.13;4.78;;;;;;;13.44;62.36;99845.81;8173451;29;20044;-72
2022/05/07 20:09:34;;;;;;;10.82;4.43;;;;;;;13.35;62.49;99842.25;8225797;28;20056;-72
2022/05/07 20:13:35;;;;;;;13.32;5.70;;;;;;;13.25;63.16;99837.06;8225778;28;20061;-72
2022/05/07 20:17:38;;;;;;;10.05;6.03;;;;;;;13.17;62.96;99841.31;8227061;28;20506;-73
2022/05/07 20:21:49;;;;;;;9.98;5.10;;;;;;;13.05;63.29;99844.56;8220687;28;20142;-73
2022/05/07 20:25:51;;;;;;;10.95;5.65;;;;;;;12.95;63.65;99844.78;8228081;28;20141;-72
2022/05/07 20:29:52;;;;;;;10.82;6.22;;;;;;;12.84;63.87;99848.03;8253200;28;20433;-72
2022/05/07 20:33:54;;;;;;;15.15;5.93;;;;;;;12.74;64.05;99843.66;8203752;28;20137;-73
2022/05/07 20:37:56;;;;;;;10.68;6.57;;;;;;;12.66;64.26;99849.78;8243456;28;20493;-73
2022/05/07 20:41:58;;;;;;;11.30;6.38;;;;;;;12.56;64.68;99858.13;8228347;28;20446;-72
2022/05/07 20:50:19;;;;;;;17.73;8.77;;;;;;;12.44;64.93;99855.13;8240463;28;20138;-72
2022/05/07 20:54:21;;;;;;;19.60;10.48;;;;;;;12.36;65.26;99855.84;8208291;28;20067;-73
2022/05/07 20:58:23;;;;;;;18.58;10.50;;;;;;;12.27;65.31;99851.13;8205638;28;20114;-72
2022/05/07 21:02:28;;;;;;;25.45;14.25;;;;;;;12.18;65.57;99852.13;8214854;28;20047;-72
2022/05/07 21:06:30;;;;;;;38.60;17.95;;;;;;;12.10;65.50;99864.47;8237547;28;20422;-72
2022/05/07 21:10:33;;;;;;;37.10;18.83;;;;;;;12.01;65.87;99863.53;8210597;28;20419;-72
2022/05/07 21:14:35;;;;;;;38.58;22.17;;;;;;;11.93;66.16;99866.94;8205140;28;20066;-73
2022/05/07 21:18:35;;;;;;;38.25;19.90;;;;;;;11.88;66.24;99867.06;8224378;28;20106;-72
2022/05/07 21:22:36;;;;;;;41.63;19.73;;;;;;;11.78;66.77;99859.91;8219674;28;20418;-72
2022/05/07 21:26:40;;;;;;;31.70;16.90;;;;;;;11.74;66.99;99860.78;8213774;28;20180;-72
2022/05/07 21:30:41;;;;;;;33.10;15.85;;;;;;;11.69;67.07;99871.66;8226857;28;20051;-73
2022/05/07 21:34:42;;;;;;;30.73;14.20;;;;;;;11.64;67.09;99869.06;8214202;28;20054;-73
2022/05/07 21:38:48;;;;;;;24.95;12.13;;;;;;;11.58;67.21;99864.84;8203820;28;20066;-73
2022/05/07 21:42:50;;;;;;;26.13;10.98;;;;;;;11.53;67.63;99870.31;8221295;28;20109;-72
2022/05/07 21:46:51;;;;;;;17.23;9.45;;;;;;;11.46;67.51;99869.91;8204014;28;20130;-72
2022/05/07 21:54:54;;;;;;;24.45;9.32;;;;;;;11.31;67.91;99871.78;8204900;28;20058;-72
2022/05/07 21:58:56;;;;;;;12.98;8.43;;;;;;;11.27;68.32;99864.53;8230442;28;20138;-72
2022/05/07 22:02:59;;;;;;;23.40;7.90;;;;;;;11.20;68.40;99864.94;8251948;28;20495;-72
2022/05/07 22:07:00;;;;;;;13.38;7.53;;;;;;;11.13;68.62;99869.88;8203689;28;20051;-72
2022/05/07 22:11:01;;;;;;;11.55;6.97;;;;;;;11.11;68.36;99877.47;8203896;28;20051;-72
2022/05/07 22:15:04;;;;;;;13.00;5.85;;;;;;;11.10;68.44;99865.09;8216370;28;20063;-72
2022/05/07 22:19:05;;;;;;;14.35;6.03;;;;;;;11.07;68.67;99876.47;8211375;28;20058;-72
2022/05/07 22:23:07;;;;;;;12.55;5.90;;;;;;;11.00;68.80;99876.03;8210889;28;20038;-73
2022/05/07 22:27:08;;;;;;;7.10;5.38;;;;;;;10.96;68.90;99870.41;8217542;28;20438;-72
2022/05/07 22:31:09;;;;;;;11.65;5.45;;;;;;;10.86;69.27;99864.34;8202749;28;20051;-72
2022/05/07 22:35:10;;;;;;;9.93;5.65;;;;;;;10.78;69.47;99863.13;8202650;28;20522;-72
2022/05/07 22:39:11;;;;;;;11.55;5.72;;;;;;;10.72;69.57;99868.88;8202425;28;20062;-72
2022/05/07 22:43:13;;;;;;;10.77;5.68;;;;;;;10.66;69.62;99864.63;8216977;28;20078;-72
2022/05/07 22:47:13;;;;;;;8.65;5.30;;;;;;;10.59;69.94;99876.59;8206374;28;20047;-72